createdAt,value
2018-07-30T00:01:02.858Z,19.1
2018-07-30T00:02:10.077Z,19.1
2018-07-30T00:03:17.291Z,19.1
2018-07-30T00:04:24.506Z,19.1
2018-07-30T00:05:31.758Z,19.1
2018-07-30T00:06:38.971Z,19
2018-07-30T00:07:46.184Z,19
2018-07-30T00:08:53.397Z,19
2018-07-30T00:10:00.608Z,19
2018-07-30T00:11:07.821Z,19
2018-07-30T00:12:15.039Z,19
2018-07-30T00:13:21.974Z,19
2018-07-30T00:14:29.187Z,19
2018-07-30T00:15:36.399Z,19
2018-07-30T00:16:43.607Z,19
2018-07-30T00:17:50.547Z,19
2018-07-30T00:18:57.761Z,19
2018-07-30T00:20:04.977Z,19
2018-07-30T00:21:11.917Z,19
2018-07-30T00:22:19.131Z,19
2018-07-30T00:23:26.342Z,19
2018-07-30T00:24:33.556Z,19
2018-07-30T00:25:40.773Z,19
2018-07-30T00:26:47.973Z,19
2018-07-30T00:27:54.909Z,19
2018-07-30T00:29:02.121Z,19
2018-07-30T00:30:09.330Z,19
2018-07-30T00:31:16.593Z,18.9
2018-07-30T00:32:23.600Z,18.9
2018-07-30T00:33:30.811Z,18.9
2018-07-30T00:34:38.025Z,18.9
2018-07-30T00:35:45.266Z,18.9
2018-07-30T00:36:52.485Z,18.8
2018-07-30T00:37:59.420Z,18.8
2018-07-30T00:39:06.624Z,18.8
2018-07-30T00:40:13.832Z,18.8
2018-07-30T00:41:21.048Z,18.8
2018-07-30T00:42:27.978Z,18.8
2018-07-30T00:43:35.190Z,18.8
2018-07-30T00:44:42.399Z,18.8
2018-07-30T00:45:49.614Z,18.8
2018-07-30T00:46:56.827Z,18.8
2018-07-30T00:48:04.036Z,18.8
2018-07-30T00:49:11.298Z,18.7
2018-07-30T00:50:18.507Z,18.8
2018-07-30T00:51:25.720Z,18.8
2018-07-30T00:52:32.932Z,18.7
2018-07-30T00:53:40.147Z,18.7
2018-07-30T00:54:47.364Z,18.7
2018-07-30T00:55:54.580Z,18.7
2018-07-30T00:57:01.792Z,18.6
2018-07-30T00:58:09.006Z,18.6
2018-07-30T00:59:16.220Z,18.6
2018-07-30T01:00:23.647Z,18.6
2018-07-30T01:01:30.857Z,18.6
2018-07-30T01:02:38.066Z,18.7
2018-07-30T01:03:45.284Z,18.6
2018-07-30T01:04:51.923Z,18.6
2018-07-30T01:05:59.131Z,18.6
2018-07-30T01:07:06.339Z,18.6
2018-07-30T01:08:13.551Z,18.5
2018-07-30T01:09:20.762Z,18.5
2018-07-30T01:10:27.977Z,18.5
2018-07-30T01:11:35.188Z,18.5
2018-07-30T01:12:42.398Z,18.4
2018-07-30T01:13:49.611Z,18.4
2018-07-30T01:14:56.823Z,18.4
2018-07-30T01:16:04.037Z,18.4
2018-07-30T01:17:11.248Z,18.4
2018-07-30T01:18:18.463Z,18.4
2018-07-30T01:19:25.670Z,18.3
2018-07-30T01:20:32.883Z,18.3
2018-07-30T01:21:40.161Z,18.3
2018-07-30T01:22:47.636Z,18.3
2018-07-30T01:23:54.579Z,18.3
2018-07-30T01:25:01.786Z,18.3
2018-07-30T01:26:08.997Z,18.3
2018-07-30T01:27:16.214Z,18.3
2018-07-30T01:28:23.428Z,18.3
2018-07-30T01:29:30.640Z,18.2
2018-07-30T01:30:37.856Z,18.3
2018-07-30T01:31:45.076Z,18.2
2018-07-30T01:32:52.301Z,18.2
2018-07-30T01:33:59.511Z,18.2
2018-07-30T01:35:06.718Z,18.2
2018-07-30T01:36:13.958Z,18.2
2018-07-30T01:37:21.167Z,18.2
2018-07-30T01:38:28.377Z,18.2
2018-07-30T01:39:35.588Z,18.2
2018-07-30T01:40:42.800Z,18.2
2018-07-30T01:41:50.014Z,18.2
2018-07-30T01:42:57.226Z,18.2
2018-07-30T01:44:04.434Z,18.2
2018-07-30T01:45:11.652Z,18.2
2018-07-30T01:46:18.861Z,18.2
2018-07-30T01:47:25.808Z,18.2
2018-07-30T01:48:33.019Z,18.2
2018-07-30T01:49:40.231Z,18.2
2018-07-30T01:50:47.443Z,18.2
2018-07-30T01:51:54.378Z,18.2
2018-07-30T01:53:01.591Z,18.2
2018-07-30T01:54:08.808Z,18.1
2018-07-30T01:55:15.742Z,18.1
2018-07-30T01:56:22.958Z,18.1
2018-07-30T01:57:30.171Z,18.1
2018-07-30T01:58:52.039Z,18
2018-07-30T01:59:59.245Z,18
2018-07-30T02:01:06.455Z,18
2018-07-30T02:02:13.662Z,18
2018-07-30T02:03:20.876Z,18
2018-07-30T02:04:28.089Z,18
2018-07-30T02:05:35.297Z,18
2018-07-30T02:06:42.503Z,18
2018-07-30T02:07:49.719Z,17.9
2018-07-30T02:08:56.929Z,17.9
2018-07-30T02:10:04.145Z,17.9
2018-07-30T02:11:11.361Z,17.9
2018-07-30T02:12:18.571Z,17.9
2018-07-30T02:13:25.787Z,17.9
2018-07-30T02:14:32.721Z,17.9
2018-07-30T02:15:39.932Z,17.9
2018-07-30T02:16:47.146Z,17.9
2018-07-30T02:17:54.362Z,17.9
2018-07-30T02:19:01.568Z,17.8
2018-07-30T02:20:08.505Z,17.9
2018-07-30T02:21:15.718Z,17.9
2018-07-30T02:22:22.934Z,17.9
2018-07-30T02:23:29.861Z,17.8
2018-07-30T02:24:37.082Z,17.8
2018-07-30T02:25:44.288Z,17.8
2018-07-30T02:26:51.499Z,17.8
2018-07-30T02:27:58.710Z,17.8
2018-07-30T02:29:05.931Z,17.8
2018-07-30T02:30:13.148Z,17.8
2018-07-30T02:31:20.363Z,17.7
2018-07-30T02:32:27.575Z,17.7
2018-07-30T02:33:34.515Z,17.7
2018-07-30T02:34:41.731Z,17.7
2018-07-30T02:35:48.942Z,17.6
2018-07-30T02:36:56.160Z,17.6
2018-07-30T02:38:03.375Z,17.6
2018-07-30T02:39:10.582Z,17.6
2018-07-30T02:40:17.793Z,17.6
2018-07-30T02:41:25.008Z,17.6
2018-07-30T02:42:32.219Z,17.6
2018-07-30T02:43:39.432Z,17.5
2018-07-30T02:44:46.637Z,17.5
2018-07-30T02:45:53.852Z,17.5
2018-07-30T02:47:01.060Z,17.5
2018-07-30T02:48:07.999Z,17.5
2018-07-30T02:49:15.210Z,17.5
2018-07-30T02:50:22.422Z,17.5
2018-07-30T02:51:29.630Z,17.4
2018-07-30T02:52:36.848Z,17.4
2018-07-30T02:53:43.510Z,17.4
2018-07-30T02:54:50.716Z,17.4
2018-07-30T02:55:57.931Z,17.4
2018-07-30T02:57:05.147Z,17.3
2018-07-30T02:58:12.359Z,17.3
2018-07-30T02:59:19.569Z,17.3
2018-07-30T03:00:26.776Z,17.3
2018-07-30T03:01:33.988Z,17.3
2018-07-30T03:02:41.202Z,17.3
2018-07-30T03:03:48.410Z,17.2
2018-07-30T03:04:55.625Z,17.2
2018-07-30T03:06:02.833Z,17.3
2018-07-30T03:07:10.046Z,17.2
2018-07-30T03:08:16.984Z,17.3
2018-07-30T03:09:24.332Z,17.2
2018-07-30T03:10:31.642Z,17.2
2018-07-30T03:11:38.860Z,17.2
2018-07-30T03:12:46.075Z,17.2
2018-07-30T03:13:53.005Z,17.2
2018-07-30T03:15:00.211Z,17.2
2018-07-30T03:16:07.421Z,17.1
2018-07-30T03:17:14.635Z,17.2
2018-07-30T03:18:21.841Z,17.1
2018-07-30T03:19:28.778Z,17.2
2018-07-30T03:20:35.990Z,17.2
2018-07-30T03:21:43.199Z,17.1
2018-07-30T03:22:50.410Z,17.1
2018-07-30T03:23:57.622Z,17.1
2018-07-30T03:25:04.836Z,17.1
2018-07-30T03:26:12.046Z,17.1
2018-07-30T03:27:19.261Z,17.1
2018-07-30T03:28:26.470Z,17.1
2018-07-30T03:29:33.688Z,17
2018-07-30T03:30:40.902Z,17
2018-07-30T03:31:48.110Z,17
2018-07-30T03:32:55.323Z,17
2018-07-30T03:34:02.532Z,17
2018-07-30T03:35:09.468Z,17
2018-07-30T03:36:16.675Z,17
2018-07-30T03:37:23.627Z,17
2018-07-30T03:38:30.831Z,16.9
2018-07-30T03:39:38.045Z,16.9
2018-07-30T03:40:45.252Z,16.9
2018-07-30T03:41:52.463Z,17
2018-07-30T03:42:59.675Z,17
2018-07-30T03:44:06.611Z,16.9
2018-07-30T03:45:13.821Z,16.9
2018-07-30T03:46:21.033Z,16.9
2018-07-30T03:47:28.240Z,16.9
2018-07-30T03:48:35.458Z,16.9
2018-07-30T03:49:42.666Z,16.9
2018-07-30T03:50:49.885Z,16.9
2018-07-30T03:51:57.093Z,16.9
2018-07-30T03:53:04.305Z,16.9
2018-07-30T03:54:11.517Z,16.9
2018-07-30T03:55:18.764Z,16.9
2018-07-30T03:56:25.980Z,16.8
2018-07-30T03:57:33.189Z,16.8
2018-07-30T03:58:40.404Z,16.8
2018-07-30T03:59:47.612Z,16.8
2018-07-30T04:00:54.825Z,16.8
2018-07-30T04:02:01.761Z,16.8
2018-07-30T04:03:08.976Z,16.9
2018-07-30T04:04:16.186Z,16.8
2018-07-30T04:05:23.118Z,16.8
2018-07-30T04:06:30.498Z,16.8
2018-07-30T04:07:37.920Z,16.8
2018-07-30T04:08:45.135Z,16.8
2018-07-30T04:09:52.349Z,16.8
2018-07-30T04:10:59.570Z,16.8
2018-07-30T04:12:06.793Z,16.8
2018-07-30T04:13:14.003Z,16.8
2018-07-30T04:14:20.942Z,16.8
2018-07-30T04:15:28.155Z,16.8
2018-07-30T04:16:35.364Z,16.8
2018-07-30T04:17:42.572Z,16.8
2018-07-30T04:18:49.510Z,16.8
2018-07-30T04:19:56.722Z,16.8
2018-07-30T04:21:03.931Z,16.8
2018-07-30T04:22:11.291Z,16.8
2018-07-30T04:23:18.675Z,16.8
2018-07-30T04:24:25.887Z,16.9
2018-07-30T04:25:33.097Z,16.8
2018-07-30T04:26:40.312Z,16.8
2018-07-30T04:27:47.521Z,16.8
2018-07-30T04:28:54.748Z,16.8
2018-07-30T04:30:01.962Z,16.8
2018-07-30T04:31:09.170Z,16.8
2018-07-30T04:32:16.390Z,16.8
2018-07-30T04:33:23.596Z,16.8
2018-07-30T04:34:30.805Z,16.8
2018-07-30T04:35:38.017Z,16.8
2018-07-30T04:36:45.227Z,16.9
2018-07-30T04:37:52.439Z,16.9
2018-07-30T04:38:59.653Z,16.9
2018-07-30T04:40:06.583Z,16.9
2018-07-30T04:41:13.797Z,16.9
2018-07-30T04:42:21.004Z,16.9
2018-07-30T04:43:28.213Z,16.9
2018-07-30T04:44:35.435Z,16.9
2018-07-30T04:45:42.655Z,16.9
2018-07-30T04:46:49.864Z,17
2018-07-30T04:47:57.077Z,17
2018-07-30T04:49:04.289Z,17
2018-07-30T04:50:11.267Z,17
2018-07-30T04:51:18.599Z,17
2018-07-30T04:52:25.810Z,17
2018-07-30T04:53:33.019Z,17
2018-07-30T04:54:39.687Z,17.1
2018-07-30T04:55:46.897Z,17.1
2018-07-30T04:56:54.116Z,17.1
2018-07-30T04:58:01.066Z,17.1
2018-07-30T04:59:08.278Z,17.1
2018-07-30T05:00:15.215Z,17.2
2018-07-30T05:01:22.428Z,17.2
2018-07-30T05:02:29.639Z,17.2
2018-07-30T05:03:36.860Z,17.2
2018-07-30T05:04:44.066Z,17.2
2018-07-30T05:05:51.014Z,17.2
2018-07-30T05:06:58.225Z,17.2
2018-07-30T05:08:05.438Z,17.3
2018-07-30T05:09:12.652Z,17.3
2018-07-30T05:10:19.891Z,17.4
2018-07-30T05:11:27.100Z,17.3
2018-07-30T05:12:34.312Z,17.4
2018-07-30T05:13:41.519Z,17.4
2018-07-30T05:14:48.729Z,17.5
2018-07-30T05:15:55.663Z,17.5
2018-07-30T05:17:02.878Z,17.5
2018-07-30T05:18:10.086Z,17.5
2018-07-30T05:19:17.331Z,17.5
2018-07-30T05:20:24.597Z,17.6
2018-07-30T05:21:31.820Z,17.6
2018-07-30T05:22:39.030Z,17.6
2018-07-30T05:23:46.237Z,17.6
2018-07-30T05:24:53.449Z,17.6
2018-07-30T05:26:00.658Z,17.7
2018-07-30T05:27:07.871Z,17.7
2018-07-30T05:28:15.091Z,17.8
2018-07-30T05:29:22.304Z,17.8
2018-07-30T05:30:29.513Z,17.9
2018-07-30T05:31:36.860Z,17.9
2018-07-30T05:32:43.941Z,18
2018-07-30T05:33:51.148Z,18
2018-07-30T05:34:58.358Z,18.1
2018-07-30T05:36:05.599Z,18.1
2018-07-30T05:37:12.889Z,18.1
2018-07-30T05:38:20.292Z,18.2
2018-07-30T05:39:27.500Z,18.2
2018-07-30T05:40:34.705Z,18.3
2018-07-30T05:41:41.932Z,18.4
2018-07-30T05:42:49.213Z,18.4
2018-07-30T05:43:56.429Z,18.5
2018-07-30T05:45:03.638Z,18.6
2018-07-30T05:46:10.850Z,18.7
2018-07-30T05:47:17.791Z,18.8
2018-07-30T05:48:25.032Z,18.9
2018-07-30T05:49:32.247Z,18.9
2018-07-30T05:50:39.468Z,19.1
2018-07-30T05:51:46.683Z,19.2
2018-07-30T05:52:53.900Z,19.3
2018-07-30T05:54:01.109Z,19.4
2018-07-30T05:55:08.333Z,19.5
2018-07-30T05:56:15.542Z,19.6
2018-07-30T05:57:22.756Z,19.7
2018-07-30T05:58:29.696Z,19.8
2018-07-30T05:59:37.277Z,19.9
2018-07-30T06:00:44.672Z,20
2018-07-30T06:01:51.609Z,20.1
2018-07-30T06:02:58.563Z,20.3
2018-07-30T06:04:05.782Z,20.4
2018-07-30T06:05:13.004Z,20.5
2018-07-30T06:06:20.208Z,20.6
2018-07-30T06:07:27.149Z,20.6
2018-07-30T06:08:34.363Z,20.5
2018-07-30T06:09:41.648Z,20.5
2018-07-30T06:10:49.005Z,20.6
2018-07-30T06:11:55.938Z,20.7
2018-07-30T06:13:03.151Z,20.8
2018-07-30T06:14:10.362Z,21
2018-07-30T06:15:17.572Z,21.1
2018-07-30T06:16:24.522Z,21.3
2018-07-30T06:17:31.737Z,21.5
2018-07-30T06:18:38.950Z,21.8
2018-07-30T06:19:46.162Z,21.9
2018-07-30T06:20:53.493Z,22
2018-07-30T06:22:00.730Z,22.1
2018-07-30T06:23:07.942Z,22.3
2018-07-30T06:24:15.152Z,22.5
2018-07-30T06:25:22.368Z,22.7
2018-07-30T06:26:29.784Z,22.9
2018-07-30T06:27:37.263Z,23.1
2018-07-30T06:28:44.479Z,23.3
2018-07-30T06:29:51.699Z,23.6
2018-07-30T06:30:58.633Z,23.9
2018-07-30T06:32:05.849Z,24
2018-07-30T06:33:13.059Z,24
2018-07-30T06:34:20.280Z,24
2018-07-30T06:35:27.484Z,23.9
2018-07-30T06:36:34.700Z,23.9
2018-07-30T06:37:41.918Z,23.9
2018-07-30T06:38:49.129Z,23.9
2018-07-30T06:39:56.346Z,23.9
2018-07-30T06:41:03.290Z,23.9
2018-07-30T06:42:10.506Z,23.8
2018-07-30T06:43:17.715Z,23.6
2018-07-30T06:44:24.931Z,23.5
2018-07-30T06:45:32.145Z,23.5
2018-07-30T06:46:39.367Z,23.6
2018-07-30T06:47:46.577Z,23.8
2018-07-30T06:48:53.839Z,24
2018-07-30T06:50:01.054Z,24.2
2018-07-30T06:51:08.276Z,24.5
2018-07-30T06:52:15.488Z,24.7
2018-07-30T06:53:22.829Z,25
2018-07-30T06:54:30.416Z,25.3
2018-07-30T06:55:37.620Z,25.6
2018-07-30T06:56:44.841Z,25.9
2018-07-30T06:57:52.055Z,26.2
2018-07-30T06:58:59.268Z,26.4
2018-07-30T07:00:06.493Z,26.3
2018-07-30T07:01:13.715Z,26.4
2018-07-30T07:02:20.934Z,26.4
2018-07-30T07:03:28.149Z,26.4
2018-07-30T07:04:35.085Z,26.5
2018-07-30T07:05:42.297Z,26.5
2018-07-30T07:06:49.512Z,26.7
2018-07-30T07:07:56.730Z,26.9
2018-07-30T07:09:03.945Z,27
2018-07-30T07:10:11.162Z,27.1
2018-07-30T07:11:18.372Z,27.4
2018-07-30T07:12:25.584Z,27.6
2018-07-30T07:13:32.799Z,27.9
2018-07-30T07:14:40.009Z,28
2018-07-30T07:15:47.225Z,28.2
2018-07-30T07:16:54.552Z,28.2
2018-07-30T07:18:01.972Z,28.2
2018-07-30T07:19:09.195Z,28.1
2018-07-30T07:20:16.411Z,28.2
2018-07-30T07:21:23.808Z,28.3
2018-07-30T07:22:31.450Z,28.5
2018-07-30T07:23:38.695Z,28.7
2018-07-30T07:24:45.908Z,28.9
2018-07-30T07:25:53.122Z,29
2018-07-30T07:27:00.449Z,29.2
2018-07-30T07:28:07.708Z,29.2
2018-07-30T07:29:14.984Z,29.2
2018-07-30T07:30:21.924Z,29.3
2018-07-30T07:31:29.149Z,29.5
2018-07-30T07:32:35.855Z,29.5
2018-07-30T07:33:43.084Z,29.7
2018-07-30T07:34:50.397Z,29.9
2018-07-30T07:35:57.678Z,30.1
2018-07-30T07:37:04.897Z,30.2
2018-07-30T07:38:12.116Z,30.3
2018-07-30T07:39:19.430Z,30.3
2018-07-30T07:40:26.550Z,30.3
2018-07-30T07:41:33.854Z,30.3
2018-07-30T07:42:41.070Z,30.3
2018-07-30T07:43:48.284Z,30.4
2018-07-30T07:44:55.536Z,30.5
2018-07-30T07:46:02.929Z,30.7
2018-07-30T07:47:10.148Z,30.9
2018-07-30T07:48:17.484Z,30.9
2018-07-30T07:49:24.989Z,30.9
2018-07-30T07:50:32.392Z,31.1
2018-07-30T07:51:39.694Z,31.2
2018-07-30T07:52:47.053Z,31.3
2018-07-30T07:53:54.273Z,31.4
2018-07-30T07:55:01.491Z,31.5
2018-07-30T07:56:08.705Z,31.5
2018-07-30T07:57:15.650Z,31.5
2018-07-30T07:58:22.866Z,31.5
2018-07-30T07:59:30.082Z,31.5
2018-07-30T08:00:37.296Z,31.6
2018-07-30T08:01:44.517Z,31.9
2018-07-30T08:02:51.738Z,31.8
2018-07-30T08:03:59.026Z,31.8
2018-07-30T08:05:06.514Z,31.8
2018-07-30T08:06:14.089Z,32
2018-07-30T08:07:21.459Z,32.1
2018-07-30T08:08:28.676Z,32
2018-07-30T08:09:36.219Z,31.9
2018-07-30T08:10:43.465Z,32.1
2018-07-30T08:11:50.410Z,32.2
2018-07-30T08:12:57.623Z,32.4
2018-07-30T08:14:04.845Z,32.4
2018-07-30T08:15:12.061Z,32.3
2018-07-30T08:16:19.431Z,32.5
2018-07-30T08:17:26.902Z,32.6
2018-07-30T08:18:34.119Z,32.8
2018-07-30T08:19:41.063Z,32.9
2018-07-30T08:20:48.281Z,33.2
2018-07-30T08:21:55.497Z,33.4
2018-07-30T08:23:02.158Z,33.5
2018-07-30T08:24:09.383Z,33.5
2018-07-30T08:25:16.599Z,33.4
2018-07-30T08:26:23.272Z,33.2
2018-07-30T08:27:30.490Z,33.3
2018-07-30T08:28:37.707Z,33.4
2018-07-30T08:29:44.941Z,33.3
2018-07-30T08:30:52.176Z,33.2
2018-07-30T08:31:59.397Z,33.1
2018-07-30T08:33:06.715Z,33.3
2018-07-30T08:34:14.108Z,33.3
2018-07-30T08:35:21.557Z,33.5
2018-07-30T08:36:28.761Z,33.6
2018-07-30T08:37:35.707Z,33.4
2018-07-30T08:38:42.929Z,33.3
2018-07-30T08:39:50.142Z,33.5
2018-07-30T08:40:57.128Z,33.4
2018-07-30T08:42:04.069Z,33.2
2018-07-30T08:43:11.284Z,33.1
2018-07-30T08:44:18.502Z,33.2
2018-07-30T08:45:25.718Z,33.4
2018-07-30T08:46:32.936Z,33.7
2018-07-30T08:47:40.162Z,33.8
2018-07-30T08:48:47.214Z,34.1
2018-07-30T08:49:54.628Z,34.2
2018-07-30T08:51:01.860Z,34.2
2018-07-30T08:52:09.079Z,34
2018-07-30T08:53:16.298Z,34
2018-07-30T08:54:23.515Z,34.3
2018-07-30T08:55:30.731Z,34.5
2018-07-30T08:56:37.946Z,34.4
2018-07-30T08:57:45.170Z,34.5
2018-07-30T08:58:52.390Z,34.4
2018-07-30T08:59:59.610Z,34.1
2018-07-30T09:01:06.837Z,33.8
2018-07-30T09:02:14.055Z,33.5
2018-07-30T09:03:21.274Z,33.6
2018-07-30T09:04:28.496Z,34
2018-07-30T09:05:35.714Z,34.1
2018-07-30T09:06:42.936Z,34
2018-07-30T09:07:50.157Z,33.8
2018-07-30T09:08:57.375Z,33.9
2018-07-30T09:10:04.600Z,33.8
2018-07-30T09:11:11.818Z,33.9
2018-07-30T09:12:19.032Z,33.8
2018-07-30T09:13:26.307Z,33.9
2018-07-30T09:14:33.529Z,33.8
2018-07-30T09:15:40.751Z,34
2018-07-30T09:16:47.969Z,34.4
2018-07-30T09:17:55.187Z,34.5
2018-07-30T09:19:02.411Z,34.5
2018-07-30T09:20:09.641Z,34.5
2018-07-30T09:21:16.852Z,34.4
2018-07-30T09:22:24.071Z,34.4
2018-07-30T09:23:31.294Z,34.6
2018-07-30T09:24:53.187Z,34.9
2018-07-30T09:26:00.414Z,35.3
2018-07-30T09:27:07.487Z,35.4
2018-07-30T09:28:14.970Z,35.5
2018-07-30T09:29:22.194Z,35.6
2018-07-30T09:30:29.412Z,35.9
2018-07-30T09:31:36.648Z,36.1
2018-07-30T09:32:44.068Z,36.4
2018-07-30T09:33:51.482Z,36.3
2018-07-30T09:34:58.417Z,35.9
2018-07-30T09:36:05.643Z,35.4
2018-07-30T09:37:12.867Z,35.2
2018-07-30T09:38:20.085Z,35
2018-07-30T09:39:27.342Z,35.2
2018-07-30T09:40:34.641Z,35
2018-07-30T09:41:41.593Z,35
2018-07-30T09:42:48.814Z,34.7
2018-07-30T09:43:56.034Z,34.6
2018-07-30T09:45:03.259Z,34.6
2018-07-30T09:46:10.516Z,34.7
2018-07-30T09:47:17.723Z,35
2018-07-30T09:48:24.663Z,35.3
2018-07-30T09:49:32.109Z,35.4
2018-07-30T09:50:39.440Z,35.7
2018-07-30T09:51:47.046Z,36.1
2018-07-30T09:52:54.347Z,36.4
2018-07-30T09:54:01.577Z,36.1
2018-07-30T09:55:08.807Z,35.9
2018-07-30T09:56:16.144Z,35.9
2018-07-30T09:57:23.599Z,35.9
2018-07-30T09:58:30.841Z,36
2018-07-30T09:59:37.784Z,36.1
2018-07-30T10:00:45.234Z,36
2018-07-30T10:01:52.470Z,35.8
2018-07-30T10:02:59.686Z,35.4
2018-07-30T10:04:06.930Z,35.4
2018-07-30T10:05:14.154Z,35.7
2018-07-30T10:06:21.648Z,35.9
2018-07-30T10:07:29.172Z,36
2018-07-30T10:08:36.523Z,36.1
2018-07-30T10:09:43.742Z,36.4
2018-07-30T10:10:50.965Z,36.4
2018-07-30T10:11:58.184Z,36.5
2018-07-30T10:13:05.407Z,36.7
2018-07-30T10:14:12.624Z,36.8
2018-07-30T10:15:19.845Z,36.8
2018-07-30T10:16:26.796Z,36.9
2018-07-30T10:17:34.128Z,36.9
2018-07-30T10:18:41.393Z,36.4
2018-07-30T10:19:48.351Z,36.5
2018-07-30T10:20:55.576Z,36.8
2018-07-30T10:22:02.520Z,37.1
2018-07-30T10:23:09.745Z,37.2
2018-07-30T10:24:16.971Z,37.1
2018-07-30T10:25:24.194Z,36.9
2018-07-30T10:26:31.413Z,36.7
2018-07-30T10:27:38.634Z,36.6
2018-07-30T10:28:45.862Z,36.2
2018-07-30T10:29:52.810Z,36.1
2018-07-30T10:31:00.055Z,36.2
2018-07-30T10:32:07.279Z,36.1
2018-07-30T10:33:14.237Z,36.1
2018-07-30T10:34:21.459Z,35.9
2018-07-30T10:35:28.709Z,36.1
2018-07-30T10:36:35.929Z,36.3
2018-07-30T10:37:43.152Z,36.6
2018-07-30T10:38:50.380Z,36.9
2018-07-30T10:39:57.772Z,37
2018-07-30T10:41:04.938Z,37.1
2018-07-30T10:42:12.157Z,36.9
2018-07-30T10:43:19.102Z,36.8
2018-07-30T10:44:26.329Z,36.5
2018-07-30T10:45:33.541Z,36
2018-07-30T10:46:40.763Z,36
2018-07-30T10:47:48.015Z,36.4
2018-07-30T10:48:55.236Z,36.5
2018-07-30T10:50:02.458Z,36.6
2018-07-30T10:51:09.679Z,37
2018-07-30T10:52:16.906Z,37.4
2018-07-30T10:53:24.130Z,37.8
2018-07-30T10:54:31.356Z,37.7
2018-07-30T10:55:38.587Z,37.6
2018-07-30T10:56:45.829Z,37.9
2018-07-30T10:57:53.048Z,37.9
2018-07-30T10:59:00.270Z,37.4
2018-07-30T11:00:07.494Z,36.9
2018-07-30T11:01:14.448Z,36.7
2018-07-30T11:02:21.674Z,36.9
2018-07-30T11:03:28.897Z,37.3
2018-07-30T11:04:36.126Z,37.7
2018-07-30T11:05:43.357Z,38
2018-07-30T11:06:50.306Z,38.1
2018-07-30T11:07:57.536Z,38
2018-07-30T11:10:15.090Z,38.2
2018-07-30T11:11:22.310Z,38.5
2018-07-30T11:12:29.532Z,38.8
2018-07-30T11:13:36.757Z,39.1
2018-07-30T11:14:44.030Z,38.9
2018-07-30T11:15:51.404Z,38.3
2018-07-30T11:16:58.623Z,37.9
2018-07-30T11:18:05.856Z,37.6
2018-07-30T11:19:13.070Z,37.6
2018-07-30T11:20:20.289Z,37.7
2018-07-30T11:21:27.543Z,38.1
2018-07-30T11:22:34.532Z,38.3
2018-07-30T11:23:41.761Z,38.5
2018-07-30T11:24:48.981Z,38.3
2018-07-30T11:25:56.222Z,38
2018-07-30T11:27:03.449Z,37.9
2018-07-30T11:28:10.809Z,38.1
2018-07-30T11:29:18.101Z,38.5
2018-07-30T11:30:25.325Z,38.7
2018-07-30T11:31:32.552Z,38.8
2018-07-30T11:32:39.770Z,39.1
2018-07-30T11:33:46.721Z,39.3
2018-07-30T11:34:53.943Z,39.4
2018-07-30T11:36:01.171Z,39.2
2018-07-30T11:37:08.392Z,39.2
2018-07-30T11:38:15.629Z,39.3
2018-07-30T11:39:22.853Z,39.2
2018-07-30T11:40:29.807Z,38.7
2018-07-30T11:41:37.033Z,38.6
2018-07-30T11:42:44.255Z,38.9
2018-07-30T11:43:51.237Z,39
2018-07-30T11:44:58.465Z,38.9
2018-07-30T11:46:05.685Z,38.9
2018-07-30T11:47:12.911Z,38.9
2018-07-30T11:48:20.191Z,38.6
2018-07-30T11:49:27.627Z,38.5
2018-07-30T11:50:34.573Z,38.6
2018-07-30T11:51:41.796Z,38.9
2018-07-30T11:52:49.022Z,38.8
2018-07-30T11:53:56.312Z,38.6
2018-07-30T11:55:03.525Z,38.7
2018-07-30T11:56:10.752Z,38.8
2018-07-30T11:57:17.977Z,38.9
2018-07-30T11:58:25.200Z,39.2
2018-07-30T11:59:32.419Z,38.9
2018-07-30T12:00:39.640Z,39
2018-07-30T12:01:46.970Z,39.3
2018-07-30T12:02:54.495Z,39
2018-07-30T12:04:01.722Z,39.3
2018-07-30T12:05:08.954Z,39.2
2018-07-30T12:06:16.179Z,39.2
2018-07-30T12:07:22.569Z,39
2018-07-30T12:08:29.795Z,38.5
2018-07-30T12:09:37.014Z,38.4
2018-07-30T12:10:44.238Z,38.6
2018-07-30T12:11:51.484Z,38.6
2018-07-30T12:12:58.758Z,38.8
2018-07-30T12:14:05.989Z,39.2
2018-07-30T12:15:13.211Z,39.4
2018-07-30T12:16:20.434Z,39.2
2018-07-30T12:17:27.669Z,38.9
2018-07-30T12:18:34.912Z,38.8
2018-07-30T12:19:42.136Z,39
2018-07-30T12:20:49.359Z,38.9
2018-07-30T12:22:11.255Z,38.7
2018-07-30T12:23:18.479Z,38.2
2018-07-30T12:24:25.703Z,37.4
2018-07-30T12:25:32.929Z,37.6
2018-07-30T12:26:39.881Z,38.2
2018-07-30T12:27:47.141Z,38.4
2018-07-30T12:28:54.351Z,38.3
2018-07-30T12:30:01.688Z,38.4
2018-07-30T12:31:09.191Z,38.3
2018-07-30T12:32:16.149Z,38
2018-07-30T12:33:23.101Z,38.1
2018-07-30T12:34:30.325Z,38.2
2018-07-30T12:35:36.999Z,38.2
2018-07-30T12:36:44.237Z,38.2
2018-07-30T12:37:51.459Z,38.3
2018-07-30T12:38:58.684Z,38.2
2018-07-30T12:40:05.910Z,38.3
2018-07-30T12:41:13.162Z,38.7
2018-07-30T12:42:20.116Z,39.2
2018-07-30T12:43:27.337Z,39.8
2018-07-30T12:44:34.563Z,39.8
2018-07-30T12:45:41.795Z,39.9
2018-07-30T12:46:49.016Z,39.8
2018-07-30T12:47:56.237Z,39.9
2018-07-30T12:49:03.484Z,39.7
2018-07-30T12:50:10.715Z,39.5
2018-07-30T12:51:17.956Z,39.6
2018-07-30T12:52:25.170Z,40.1
2018-07-30T12:53:32.119Z,40.3
2018-07-30T12:54:39.371Z,40
2018-07-30T12:55:46.611Z,40.2
2018-07-30T12:56:53.978Z,40
2018-07-30T12:58:01.407Z,40
2018-07-30T12:59:08.630Z,40
2018-07-30T13:00:15.860Z,39.9
2018-07-30T13:01:23.081Z,40
2018-07-30T13:02:30.311Z,40.3
2018-07-30T13:03:37.538Z,40.3
2018-07-30T13:04:44.764Z,40.2
2018-07-30T13:05:51.987Z,40.1
2018-07-30T13:06:59.212Z,40
2018-07-30T13:08:06.445Z,39.6
2018-07-30T13:09:13.682Z,38.9
2018-07-30T13:10:20.906Z,39.1
2018-07-30T13:11:28.157Z,39.3
2018-07-30T13:12:35.382Z,39.4
2018-07-30T13:13:42.663Z,39.6
2018-07-30T13:14:50.039Z,39.5
2018-07-30T13:15:57.438Z,39.6
2018-07-30T13:17:04.692Z,39.7
2018-07-30T13:18:11.640Z,40
2018-07-30T13:19:18.874Z,40.6
2018-07-30T13:20:26.102Z,40.6
2018-07-30T13:21:33.326Z,40.6
2018-07-30T13:22:40.544Z,40.7
2018-07-30T13:23:47.766Z,40.4
2018-07-30T13:24:55.030Z,40.3
2018-07-30T13:26:02.485Z,40.5
2018-07-30T13:27:09.713Z,40.9
2018-07-30T13:28:16.940Z,41.1
2018-07-30T13:29:24.170Z,41.4
2018-07-30T13:30:31.400Z,41.2
2018-07-30T13:31:38.627Z,41
2018-07-30T13:32:46.051Z,40.4
2018-07-30T13:33:53.092Z,39.7
2018-07-30T13:35:00.321Z,39.1
2018-07-30T13:36:07.545Z,39
2018-07-30T13:37:14.770Z,39.1
2018-07-30T13:38:21.993Z,39.5
2018-07-30T13:39:29.218Z,39.8
2018-07-30T13:40:36.451Z,40.2
2018-07-30T13:41:43.673Z,40.4
2018-07-30T13:42:50.897Z,40.5
2018-07-30T13:43:57.846Z,40.9
2018-07-30T13:45:05.073Z,40.9
2018-07-30T13:46:12.297Z,40.5
2018-07-30T13:47:19.517Z,40.4
2018-07-30T13:48:26.750Z,40.4
2018-07-30T13:49:33.971Z,40.4
2018-07-30T13:50:41.199Z,40.5
2018-07-30T13:51:48.432Z,40.8
2018-07-30T13:52:55.656Z,40.4
2018-07-30T13:54:02.880Z,40.5
2018-07-30T13:55:10.108Z,40.8
2018-07-30T13:56:17.332Z,41.1
2018-07-30T13:57:39.213Z,41.3
2018-07-30T13:58:46.437Z,41.3
2018-07-30T13:59:53.711Z,41.3
2018-07-30T14:01:01.119Z,41.1
2018-07-30T14:02:08.341Z,41
2018-07-30T14:03:15.565Z,40.9
2018-07-30T14:04:22.789Z,41.3
2018-07-30T14:05:30.016Z,41.6
2018-07-30T14:06:37.338Z,41.8
2018-07-30T14:07:44.594Z,42
2018-07-30T14:08:51.822Z,41.5
2018-07-30T14:09:59.051Z,40.8
2018-07-30T14:11:06.275Z,40.7
2018-07-30T14:12:13.502Z,40.7
2018-07-30T14:13:20.729Z,40.7
2018-07-30T14:14:27.408Z,40.7
2018-07-30T14:15:34.625Z,41
2018-07-30T14:16:41.853Z,40.9
2018-07-30T14:17:49.084Z,40.7
2018-07-30T14:18:56.304Z,40.8
2018-07-30T14:20:03.532Z,40.7
2018-07-30T14:21:10.758Z,40.7
2018-07-30T14:22:17.987Z,40.4
2018-07-30T14:23:25.213Z,40.5
2018-07-30T14:24:32.436Z,40.7
2018-07-30T14:25:39.662Z,40.8
2018-07-30T14:26:46.921Z,40.9
2018-07-30T14:27:54.173Z,40.9
2018-07-30T14:29:01.121Z,41.3
2018-07-30T14:30:08.351Z,41.7
2018-07-30T14:31:15.581Z,41.8
2018-07-30T14:32:22.807Z,41.5
2018-07-30T14:33:30.033Z,41.3
2018-07-30T14:34:37.266Z,40.9
2018-07-30T14:35:44.493Z,40.3
2018-07-30T14:36:51.998Z,39.7
2018-07-30T14:37:59.452Z,39.5
2018-07-30T14:39:06.469Z,39.3
2018-07-30T14:40:13.709Z,39.3
2018-07-30T14:41:20.936Z,39.5
2018-07-30T14:42:28.229Z,40.1
2018-07-30T14:43:35.629Z,40.1
2018-07-30T14:44:42.860Z,40.2
2018-07-30T14:45:50.086Z,40.2
2018-07-30T14:46:57.304Z,40.3
2018-07-30T14:48:04.537Z,40.4
2018-07-30T14:49:11.494Z,40.4
2018-07-30T14:50:18.728Z,40.7
2018-07-30T14:51:25.957Z,40.8
2018-07-30T14:52:33.191Z,41.1
2018-07-30T14:53:40.423Z,41.4
2018-07-30T14:54:47.694Z,41.5
2018-07-30T14:55:54.934Z,41.4
2018-07-30T14:57:02.161Z,41.4
2018-07-30T14:58:09.388Z,41.7
2018-07-30T14:59:16.819Z,41.9
2018-07-30T15:00:24.214Z,42
2018-07-30T15:01:31.440Z,41.8
2018-07-30T15:02:38.665Z,41.6
2018-07-30T15:03:45.618Z,41.2
2018-07-30T15:04:52.846Z,40.7